createdAt,value
2018-09-18T00:00:10.150Z,100996.97
2018-09-18T00:02:38.929Z,100988.55
2018-09-18T00:05:07.752Z,100982.16
2018-09-18T00:07:36.503Z,100980.33
2018-09-18T00:10:05.409Z,100975.95
2018-09-18T00:12:34.190Z,100988.89
2018-09-18T00:15:02.982Z,100993.79
2018-09-18T00:17:31.778Z,100996.97
2018-09-18T00:20:00.636Z,100978.64
2018-09-18T00:22:29.393Z,100992.93
2018-09-18T00:24:58.143Z,100994.28
2018-09-18T00:27:26.891Z,100992.11
2018-09-18T00:29:55.677Z,100980.81
2018-09-18T00:32:24.422Z,100966.53
2018-09-18T00:34:53.164Z,100976.77
2018-09-18T00:37:22.137Z,100983.02
2018-09-18T00:39:50.902Z,100974.60
2018-09-18T00:42:19.792Z,100984.85
2018-09-18T00:44:48.501Z,100985.38
2018-09-18T00:47:17.251Z,100987.55
2018-09-18T00:49:46.061Z,100996.14
2018-09-18T00:52:14.870Z,100998.42
2018-09-18T00:54:43.772Z,100993.53
2018-09-18T00:57:12.534Z,101002.02
2018-09-18T00:59:41.302Z,101000.75
2018-09-18T01:02:10.081Z,100999.40
2018-09-18T01:04:38.925Z,100998.91
2018-09-18T01:07:07.947Z,100990.98
2018-09-18T01:09:36.660Z,100999.05
2018-09-18T01:12:05.532Z,100996.37
2018-09-18T01:14:35.883Z,100996.85
2018-09-18T01:17:05.361Z,100998.20
2018-09-18T01:19:34.121Z,100992.81
2018-09-18T01:22:02.958Z,100986.22
2018-09-18T01:24:31.740Z,100992.44
2018-09-18T01:27:00.512Z,100997.00
2018-09-18T01:29:29.234Z,101003.34
2018-09-18T01:31:58.073Z,101003.34
2018-09-18T01:34:26.798Z,101004.32
2018-09-18T01:36:55.580Z,101012.40
2018-09-18T01:39:24.329Z,101010.22
2018-09-18T01:41:53.106Z,101012.05
2018-09-18T01:44:21.844Z,101007.53
2018-09-18T01:46:50.589Z,101017.44
2018-09-18T01:49:19.320Z,101019.27
2018-09-18T01:51:48.087Z,101027.34
2018-09-18T01:54:16.808Z,101022.94
2018-09-18T01:56:45.665Z,101031.88
2018-09-18T01:59:14.417Z,101035.05
2018-09-18T02:01:43.169Z,101033.22
2018-09-18T02:04:11.926Z,101032.84
2018-09-18T02:06:40.720Z,101029.33
2018-09-18T02:09:09.706Z,101018.90
2018-09-18T02:11:38.465Z,101020.24
2018-09-18T02:14:07.289Z,101015.48
2018-09-18T02:16:36.041Z,101019.04
2018-09-18T02:19:04.869Z,101023.08
2018-09-18T02:21:33.664Z,101023.08
2018-09-18T02:24:02.654Z,101023.94
2018-09-18T02:26:31.429Z,101018.55
2018-09-18T02:29:00.322Z,101011.30
2018-09-18T02:31:29.079Z,101004.23
2018-09-18T02:33:57.840Z,101008.12
2018-09-18T02:36:26.572Z,101007.27
2018-09-18T02:38:55.341Z,101005.44
2018-09-18T02:41:24.157Z,101008.12
2018-09-18T02:43:52.888Z,101007.64
2018-09-18T02:46:21.677Z,100994.18
2018-09-18T02:48:50.487Z,101020.13
2018-09-18T02:51:19.192Z,101021.48
2018-09-18T02:53:47.931Z,101003.12
2018-09-18T02:56:16.672Z,100983.30
2018-09-18T02:58:45.421Z,100987.83
2018-09-18T03:01:14.189Z,100992.35
2018-09-18T03:03:42.979Z,100983.79
2018-09-18T03:06:11.816Z,100972.16
2018-09-18T03:08:40.572Z,100973.02
2018-09-18T03:11:09.332Z,100968.12
2018-09-18T03:13:38.111Z,100964.45
2018-09-18T03:16:06.965Z,100963.59
2018-09-18T03:18:35.843Z,100962.25
2018-09-18T03:21:04.669Z,100952.83
2018-09-18T03:23:33.400Z,100961.77
2018-09-18T03:26:02.177Z,100959.56
2018-09-18T03:28:30.982Z,100960.91
2018-09-18T03:30:59.810Z,100976.20
2018-09-18T03:33:28.539Z,100990.14
2018-09-18T03:35:57.322Z,100989.66
2018-09-18T03:38:26.095Z,100968.61
2018-09-18T03:40:54.915Z,100961.88
2018-09-18T03:43:23.834Z,100949.39
2018-09-18T03:45:52.624Z,100956.12
2018-09-18T03:48:21.348Z,100962.36
2018-09-18T03:50:50.130Z,100950.73
2018-09-18T03:53:18.904Z,100947.55
2018-09-18T03:55:47.632Z,100961.50
2018-09-18T03:58:16.323Z,100961.50
2018-09-18T04:00:45.092Z,100953.95
2018-09-18T04:03:14.381Z,100952.59
2018-09-18T04:05:43.155Z,100956.12
2018-09-18T04:08:11.881Z,100956.64
2018-09-18T04:10:40.649Z,100960.67
2018-09-18T04:13:09.672Z,100961.16
2018-09-18T04:15:38.465Z,100970.92
2018-09-18T04:18:07.334Z,100965.20
2018-09-18T04:20:36.121Z,100969.09
2018-09-18T04:23:04.960Z,100959.81
2018-09-18T04:25:33.855Z,100957.12
2018-09-18T04:28:02.693Z,100958.47
2018-09-18T04:30:31.461Z,100959.33
2018-09-18T04:33:00.195Z,100959.81
2018-09-18T04:35:28.963Z,100967.41
2018-09-18T04:37:57.721Z,100963.85
2018-09-18T04:40:26.593Z,100961.16
2018-09-18T04:42:55.361Z,100950.39
2018-09-18T04:45:25.248Z,100954.91
2018-09-18T04:47:54.792Z,100956.27
2018-09-18T04:50:23.610Z,100958.95
2018-09-18T04:52:52.428Z,100955.06
2018-09-18T05:00:16.605Z,100954.05
2018-09-18T05:02:45.419Z,100948.19
2018-09-18T05:05:14.255Z,100949.05
2018-09-18T05:07:43.035Z,100956.75
2018-09-18T05:10:11.786Z,100951.25
2018-09-18T05:12:40.522Z,100956.64
2018-09-18T05:15:09.322Z,100956.12
2018-09-18T05:17:38.304Z,100957.98
2018-09-18T05:20:07.084Z,100962.84
2018-09-18T05:22:35.802Z,100965.54
2018-09-18T05:25:04.762Z,100959.67
2018-09-18T05:27:33.550Z,100950.25
2018-09-18T05:30:02.292Z,100939.96
2018-09-18T05:32:31.145Z,100943.89
2018-09-18T05:34:59.894Z,100938.99
2018-09-18T05:37:28.750Z,100934.95
2018-09-18T05:39:57.509Z,100930.43
2018-09-18T05:42:26.278Z,100921.01
2018-09-18T05:44:55.131Z,100926.25
2018-09-18T05:47:23.906Z,100917.83
2018-09-18T05:49:52.740Z,100915.48
2018-09-18T05:52:21.532Z,100902.02
2018-09-18T05:54:50.316Z,100907.06
2018-09-18T05:57:19.049Z,100905.23
2018-09-18T05:59:47.897Z,100903.36
2018-09-18T06:02:16.916Z,100907.06
2018-09-18T06:04:45.611Z,100902.53
2018-09-18T06:07:14.431Z,100897.16
2018-09-18T06:09:43.185Z,100896.63
2018-09-18T06:12:11.993Z,100892.25
2018-09-18T06:14:41.071Z,100897.16
2018-09-18T06:17:09.960Z,100896.63
2018-09-18T06:19:38.773Z,100893.60
2018-09-18T06:22:07.610Z,100893.60
2018-09-18T06:24:36.395Z,100901.05
2018-09-18T06:27:05.753Z,100910.09
2018-09-18T06:29:34.557Z,100905.08
2018-09-18T06:32:03.311Z,100902.39
2018-09-18T06:34:32.087Z,100904.22
2018-09-18T06:37:01.040Z,100897.87
2018-09-18T06:39:29.815Z,100897.38
2018-09-18T06:41:58.680Z,100874.98
2018-09-18T06:44:27.505Z,100873.48
2018-09-18T06:46:56.353Z,100859.17
2018-09-18T06:49:25.105Z,100859.54
2018-09-18T06:51:53.920Z,100853.67
2018-09-18T06:54:22.739Z,100848.77
2018-09-18T06:56:51.505Z,100851.47
2018-09-18T06:59:20.277Z,100849.63
2018-09-18T07:01:49.099Z,100840.69
2018-09-18T07:04:17.902Z,100841.55
2018-09-18T07:06:46.661Z,100843.39
2018-09-18T07:09:15.432Z,100846.08
2018-09-18T07:11:44.189Z,100848.28
2018-09-18T07:14:12.954Z,100857.34
2018-09-18T07:16:41.819Z,100864.06
2018-09-18T07:19:10.681Z,100869.45
2018-09-18T07:21:39.405Z,100870.80
2018-09-18T07:24:08.200Z,100876.18
2018-09-18T07:26:37.073Z,100872.14
2018-09-18T07:29:05.821Z,100868.10
2018-09-18T07:31:34.614Z,100867.62
2018-09-18T07:34:03.707Z,100861.75
2018-09-18T07:36:32.453Z,100852.81
2018-09-18T07:39:01.209Z,100844.88
2018-09-18T07:41:29.978Z,100834.11
2018-09-18T07:43:58.817Z,100831.76
2018-09-18T07:46:27.583Z,100830.91
2018-09-18T07:49:00.514Z,100830.08
2018-09-18T07:51:29.291Z,100839.34
2018-09-18T07:53:58.408Z,100837.14
2018-09-18T07:56:27.316Z,100827.72
2018-09-18T07:58:56.171Z,100838.00
2018-09-18T08:01:24.944Z,100831.76
2018-09-18T08:03:53.719Z,100836.28
2018-09-18T08:06:22.551Z,100836.28
2018-09-18T08:08:51.341Z,100837.52
2018-09-18T08:11:20.159Z,100834.83
2018-09-18T08:13:49.001Z,100829.92
2018-09-18T08:16:17.758Z,100834.83
2018-09-18T08:18:46.568Z,100834.94
2018-09-18T08:21:15.422Z,100836.66
2018-09-18T08:23:44.156Z,100837.63
2018-09-18T08:26:12.977Z,100840.32
2018-09-18T08:28:41.875Z,100844.88
2018-09-18T08:31:10.688Z,100842.19
2018-09-18T08:33:39.493Z,100839.98
2018-09-18T08:36:08.601Z,100836.06
2018-09-18T08:38:37.334Z,100834.71
2018-09-18T08:41:06.430Z,100832.88
2018-09-18T08:43:35.168Z,100827.64
2018-09-18T08:46:04.230Z,100828.98
2018-09-18T08:48:33.123Z,100831.20
2018-09-18T08:51:02.637Z,100827.76
2018-09-18T08:53:32.165Z,100824.72
2018-09-18T08:56:00.972Z,100822.03
2018-09-18T08:58:29.756Z,100820.17
2018-09-18T09:00:58.506Z,100809.55
2018-09-18T09:03:27.308Z,100810.41
2018-09-18T09:05:56.186Z,100807.72
2018-09-18T09:08:25.026Z,100808.20
2018-09-18T09:10:53.825Z,100814.08
2018-09-18T09:18:17.943Z,100809.33
2018-09-18T09:20:46.681Z,100808.95
2018-09-18T09:23:15.331Z,100804.09
2018-09-18T09:25:44.053Z,100805.44
2018-09-18T09:28:12.845Z,100805.06
2018-09-18T09:30:41.620Z,100800.16
2018-09-18T09:33:10.356Z,100797.96
2018-09-18T09:35:39.100Z,100782.33
2018-09-18T09:38:07.810Z,100772.91
2018-09-18T09:40:36.587Z,100767.16
2018-09-18T09:43:05.416Z,100771.19
2018-09-18T09:45:34.152Z,100763.61
2018-09-18T09:48:03.078Z,100777.44
2018-09-18T09:50:31.819Z,100778.30
2018-09-18T09:53:00.554Z,100784.65
2018-09-18T09:55:29.318Z,100776.95
2018-09-18T09:57:58.075Z,100789.89
2018-09-18T10:00:31.948Z,100784.50
2018-09-18T10:03:00.774Z,100787.56
2018-09-18T10:05:29.479Z,100779.98
2018-09-18T10:07:58.253Z,100786.22
2018-09-18T10:10:30.958Z,100778.52
2018-09-18T10:12:59.714Z,100777.17
2018-09-18T10:15:28.484Z,100763.72
2018-09-18T10:17:57.399Z,100762.37
2018-09-18T10:20:26.017Z,100752.95
2018-09-18T10:22:54.801Z,100752.09
2018-09-18T10:25:23.536Z,100749.25
2018-09-18T10:27:52.320Z,100749.25
2018-09-18T10:30:21.090Z,100744.35
2018-09-18T10:32:49.818Z,100743.00
2018-09-18T10:35:18.590Z,100738.14
2018-09-18T10:37:47.363Z,100736.27
2018-09-18T10:40:16.081Z,100732.23
2018-09-18T10:42:44.852Z,100733.95
2018-09-18T10:45:13.577Z,100726.86
2018-09-18T10:47:42.338Z,100726.37
2018-09-18T10:50:11.050Z,100730.06
2018-09-18T10:52:39.842Z,100727.86
2018-09-18T10:55:08.602Z,100722.48
2018-09-18T10:57:37.337Z,100728.72
2018-09-18T11:00:07.357Z,100725.51
2018-09-18T11:02:36.059Z,100721.47
2018-09-18T11:05:04.868Z,100727.00
2018-09-18T11:07:33.711Z,100729.20
2018-09-18T11:10:02.767Z,100729.20
2018-09-18T11:12:31.479Z,100733.36
2018-09-18T11:15:00.239Z,100727.98
2018-09-18T11:17:28.877Z,100731.67
2018-09-18T11:19:57.598Z,100724.09
2018-09-18T11:22:26.440Z,100734.86
2018-09-18T11:24:55.076Z,100733.02
2018-09-18T11:27:23.835Z,100728.13
2018-09-18T11:29:53.226Z,100731.80
2018-09-18T11:32:21.962Z,100730.45
2018-09-18T11:34:50.709Z,100733.66
2018-09-18T11:37:19.396Z,100730.97
2018-09-18T11:39:48.130Z,100727.42
2018-09-18T11:42:16.866Z,100730.59
2018-09-18T11:44:45.569Z,100728.77
2018-09-18T11:47:14.263Z,100726.19
2018-09-18T11:49:42.951Z,100722.16
2018-09-18T11:52:11.686Z,100722.67
2018-09-18T11:54:40.467Z,100728.05
2018-09-18T11:57:09.279Z,100720.95
2018-09-18T11:59:37.996Z,100711.05
2018-09-18T12:02:06.767Z,100707.50
2018-09-18T12:04:35.567Z,100704.44
2018-09-18T12:07:04.391Z,100703.46
2018-09-18T12:09:33.107Z,100695.88
2018-09-18T12:12:01.840Z,100688.78
2018-09-18T12:14:31.429Z,100686.94
2018-09-18T12:17:00.224Z,100678.87
2018-09-18T12:19:28.960Z,100677.52
2018-09-18T12:21:57.714Z,100673.15
2018-09-18T12:24:26.607Z,100669.11
2018-09-18T12:26:55.329Z,100668.96
2018-09-18T12:29:24.099Z,100665.41
2018-09-18T12:31:52.836Z,100662.38
2018-09-18T12:34:21.682Z,100664.22
2018-09-18T12:36:50.430Z,100655.66
2018-09-18T12:39:19.157Z,100652.97
2018-09-18T12:41:47.917Z,100652.45
2018-09-18T12:44:16.632Z,100647.06
2018-09-18T12:46:45.395Z,100646.23
2018-09-18T12:49:14.162Z,100641.34
2018-09-18T12:51:42.878Z,100640.86
2018-09-18T12:54:11.783Z,100636.30
2018-09-18T12:56:40.517Z,100632.27
2018-09-18T12:59:09.254Z,100635.47
2018-09-18T13:01:37.982Z,100623.70
2018-09-18T13:04:06.755Z,100621.01
2018-09-18T13:06:35.605Z,100619.66
2018-09-18T13:09:06.459Z,100615.63
2018-09-18T13:11:35.250Z,100611.59
2018-09-18T13:14:04.139Z,100607.22
2018-09-18T13:16:32.760Z,100604.86
2018-09-18T13:19:01.545Z,100604.00
2018-09-18T13:21:30.349Z,100590.55
2018-09-18T13:23:59.294Z,100595.44
2018-09-18T13:26:28.060Z,100588.38
2018-09-18T13:28:56.877Z,100593.77
2018-09-18T13:31:25.714Z,100584.83
2018-09-18T13:33:54.438Z,100582.14
2018-09-18T13:36:23.243Z,100580.91
2018-09-18T13:38:51.967Z,100581.28
2018-09-18T13:41:20.850Z,100572.50
2018-09-18T13:43:49.522Z,100572.02
2018-09-18T13:46:18.286Z,100562.59
2018-09-18T13:48:47.125Z,100562.59
2018-09-18T13:51:15.929Z,100565.77
2018-09-18T13:53:44.767Z,100555.98
2018-09-18T13:56:13.568Z,100559.54
2018-09-18T13:58:42.326Z,100556.84
2018-09-18T14:01:12.103Z,100560.02
2018-09-18T14:03:40.812Z,100552.44
2018-09-18T14:06:09.596Z,100555.98
2018-09-18T14:08:38.477Z,100548.41
2018-09-18T14:11:07.195Z,100548.92
2018-09-18T14:13:35.942Z,100552.96
2018-09-18T14:16:04.842Z,100546.36
2018-09-18T14:18:33.535Z,100547.58
2018-09-18T14:21:02.642Z,100544.67
2018-09-18T14:23:31.419Z,100544.16
2018-09-18T14:26:00.130Z,100539.78
2018-09-18T14:28:29.651Z,100539.78
2018-09-18T14:30:58.418Z,100541.98
2018-09-18T14:33:27.219Z,100535.74
2018-09-18T14:35:56.022Z,100533.17
2018-09-18T14:38:24.810Z,100525.95
2018-09-18T14:40:53.497Z,100531.70
2018-09-18T14:43:22.256Z,100530.36
2018-09-18T14:45:51.031Z,100537.09
2018-09-18T14:48:19.795Z,100531.70
2018-09-18T14:50:48.563Z,100529.88
2018-09-18T14:53:17.330Z,100523.63
2018-09-18T14:55:46.035Z,100524.34
2018-09-18T14:58:14.844Z,100521.64
2018-09-18T15:00:43.582Z,100518.10
2018-09-18T15:03:12.401Z,100520.67
2018-09-18T15:05:41.157Z,100515.78
2018-09-18T15:08:09.943Z,100519.66
2018-09-18T15:10:38.685Z,100522.35
2018-09-18T15:13:07.453Z,100516.97
2018-09-18T15:15:36.280Z,100512.94
2018-09-18T15:18:05.357Z,100503.52
2018-09-18T15:20:34.131Z,100503.52
2018-09-18T15:23:02.972Z,100512.81
2018-09-18T15:25:31.709Z,100505.23
2018-09-18T15:28:00.559Z,100507.92
2018-09-18T15:30:29.332Z,100501.69
2018-09-18T15:32:58.090Z,100500.70
2018-09-18T15:35:26.824Z,100497.64
2018-09-18T15:37:55.584Z,100493.61
2018-09-18T15:40:24.363Z,100498.50
2018-09-18T15:42:53.170Z,100496.30
2018-09-18T15:45:21.983Z,100488.37
2018-09-18T15:47:50.801Z,100492.75
2018-09-18T15:50:19.561Z,100492.75
2018-09-18T15:52:48.261Z,100492.27
2018-09-18T15:55:17.093Z,100489.73
2018-09-18T15:57:45.949Z,100493.39
2018-09-18T16:00:14.701Z,100490.22
2018-09-18T16:02:43.487Z,100490.70
2018-09-18T16:05:12.233Z,100485.48
2018-09-18T16:07:40.958Z,100487.16
2018-09-18T16:10:09.733Z,100484.47
2018-09-18T16:12:38.492Z,100481.44
2018-09-18T16:15:07.367Z,100477.04
2018-09-18T16:17:36.765Z,100471.29
2018-09-18T16:20:06.256Z,100478.88
2018-09-18T16:22:34.987Z,100469.61
2018-09-18T16:25:03.798Z,100478.53
2018-09-18T16:27:32.592Z,100474.63
2018-09-18T16:30:01.416Z,100475.97
2018-09-18T16:32:30.199Z,100476.98
2018-09-18T16:34:59.800Z,100479.67
2018-09-18T16:37:28.539Z,100476.12
2018-09-18T16:39:57.300Z,100476.98
2018-09-18T16:42:26.100Z,100471.72
2018-09-18T16:44:54.876Z,100474.41
2018-09-18T16:47:23.738Z,100471.72
2018-09-18T16:49:52.499Z,100471.88
2018-09-18T16:52:21.415Z,100479.42
2018-09-18T16:54:50.293Z,100473.22
2018-09-18T16:57:18.991Z,100478.23
2018-09-18T16:59:47.723Z,100474.69
2018-09-18T17:02:16.505Z,100475.33
2018-09-18T17:04:45.268Z,100479.20
2018-09-18T17:07:14.069Z,100475.69
2018-09-18T17:09:42.832Z,100479.73
2018-09-18T17:12:11.587Z,100478.02
2018-09-18T17:14:40.355Z,100482.41
2018-09-18T17:17:09.255Z,100486.45
2018-09-18T17:19:38.061Z,100485.11
2018-09-18T17:22:06.878Z,100483.24
2018-09-18T17:24:35.679Z,100484.09
2018-09-18T17:27:04.395Z,100486.45
2018-09-18T17:29:33.194Z,100484.59
2018-09-18T17:32:01.906Z,100482.27
2018-09-18T17:34:30.750Z,100486.79
2018-09-18T17:36:59.446Z,100490.83
2018-09-18T17:39:28.249Z,100489.14
2018-09-18T17:41:56.986Z,100484.09
2018-09-18T17:44:25.759Z,100488.13
2018-09-18T17:46:54.532Z,100477.37
2018-09-18T17:49:23.337Z,100475.17
2018-09-18T17:51:52.464Z,100475.69
2018-09-18T17:54:21.231Z,100481.08
2018-09-18T17:56:50.035Z,100478.38
2018-09-18T17:59:18.809Z,100474.34
2018-09-18T18:01:47.556Z,100475.69
2018-09-18T18:04:16.328Z,100476.52
2018-09-18T18:06:45.288Z,100475.69
2018-09-18T18:09:14.183Z,100480.55
2018-09-18T18:11:43.259Z,100482.41
2018-09-18T18:14:12.085Z,100476.67
2018-09-18T18:16:40.850Z,100470.92
2018-09-18T18:19:09.606Z,100474.95
2018-09-18T18:21:38.392Z,100478.98
2018-09-18T18:24:07.199Z,100474.63
2018-09-18T18:26:36.068Z,100475.48
2018-09-18T18:29:05.440Z,100471.08
2018-09-18T18:31:34.172Z,100463.98
2018-09-18T18:34:03.084Z,100465.84
2018-09-18T18:36:31.864Z,100462.30
2018-09-18T18:39:00.839Z,100461.30
2018-09-18T18:41:30.058Z,100460.95
2018-09-18T18:43:58.787Z,100461.94
2018-09-18T18:46:27.592Z,100459.61
2018-09-18T18:48:56.377Z,100454.35
2018-09-18T18:51:25.129Z,100452.67
2018-09-18T18:53:53.900Z,100453.53
2018-09-18T18:56:22.764Z,100454.88
2018-09-18T18:58:51.665Z,100458.17
2018-09-18T19:01:20.451Z,100455.48
2018-09-18T19:03:49.222Z,100450.11
2018-09-18T19:06:18.448Z,100442.67
2018-09-18T19:08:47.263Z,100436.31
2018-09-18T19:11:16.142Z,100433.63
2018-09-18T19:13:44.907Z,100431.91
2018-09-18T19:16:13.682Z,100425.68
2018-09-18T19:18:42.708Z,100429.87
2018-09-18T19:21:11.449Z,100429.72
2018-09-18T19:23:40.301Z,100427.52
2018-09-18T19:26:09.130Z,100423.14
2018-09-18T19:28:37.892Z,100424.48
2018-09-18T19:31:06.657Z,100418.25
2018-09-18T19:33:35.492Z,100416.91
2018-09-18T19:36:04.612Z,100420.95
2018-09-18T19:38:33.443Z,100412.51
2018-09-18T19:41:02.213Z,100410.19
2018-09-18T19:43:31.111Z,100408.84
2018-09-18T19:46:00.013Z,100402.12
2018-09-18T19:48:28.875Z,100410.19
2018-09-18T19:50:57.645Z,100410.19
2018-09-18T19:53:26.616Z,100415.56
2018-09-18T19:55:55.355Z,100416.91
2018-09-18T19:58:24.226Z,100412.88
2018-09-18T20:00:53.032Z,100408.35
2018-09-18T20:03:21.873Z,100407.01
2018-09-18T20:05:50.697Z,100398.08
2018-09-18T20:08:19.460Z,100401.14
2018-09-18T20:10:48.248Z,100398.78
2018-09-18T20:13:17.076Z,100393.56
2018-09-18T20:15:45.915Z,100396.25
2018-09-18T20:18:14.703Z,100390.38
2018-09-18T20:20:43.430Z,100382.31
2018-09-18T20:23:12.332Z,100384.48
2018-09-18T20:25:41.086Z,100382.31
2018-09-18T20:28:09.967Z,100385.83
2018-09-18T20:30:38.792Z,100380.45
2018-09-18T20:33:07.726Z,100378.61
2018-09-18T20:35:36.547Z,100373.72
2018-09-18T20:38:05.413Z,100373.23
2018-09-18T20:40:34.256Z,100370.54
2018-09-18T20:43:03.097Z,100372.37
2018-09-18T20:45:31.902Z,100373.39
2018-09-18T20:48:00.733Z,100364.83
2018-09-18T20:50:29.482Z,100368.34
2018-09-18T20:52:58.255Z,100363.97
2018-09-18T20:55:27.067Z,100370.70
2018-09-18T20:57:55.898Z,100362.27
2018-09-18T21:00:24.808Z,100363.12
2018-09-18T21:02:53.662Z,100355.20
2018-09-18T21:05:22.518Z,100354.84
2018-09-18T21:07:51.419Z,100350.31
2018-09-18T21:10:20.225Z,100359.23
2018-09-18T21:12:49.061Z,100355.33
2018-09-18T21:15:17.907Z,100354.84
2018-09-18T21:17:46.744Z,100353.13
2018-09-18T21:20:15.595Z,100357.69
2018-09-18T21:22:44.421Z,100349.09
2018-09-18T21:25:21.311Z,100344.23
2018-09-18T21:27:50.163Z,100357.31
2018-09-18T21:30:19.009Z,100344.36
2018-09-18T21:32:47.822Z,100332.75
2018-09-18T21:35:16.608Z,100340.81
2018-09-18T21:37:45.369Z,100339.13
2018-09-18T21:40:14.163Z,100338.65
2018-09-18T21:42:42.919Z,100338.65
2018-09-18T21:45:11.667Z,100337.30
2018-09-18T21:47:40.517Z,100338.65
2018-09-18T21:50:09.462Z,100330.21
2018-09-18T21:52:38.294Z,100329.84
2018-09-18T21:55:07.083Z,100332.90
2018-09-18T21:57:35.880Z,100325.81
2018-09-18T22:00:05.629Z,100326.17
2018-09-18T22:02:34.428Z,100330.21
2018-09-18T22:05:03.316Z,100328.87
2018-09-18T22:07:32.102Z,100323.98
2018-09-18T22:10:00.954Z,100327.52
2018-09-18T22:12:29.823Z,100332.41
2018-09-18T22:14:58.631Z,100323.00
2018-09-18T22:17:27.461Z,100327.52
2018-09-18T22:19:56.258Z,100325.69
2018-09-18T22:22:25.126Z,100325.20
2018-09-18T22:24:53.915Z,100321.66
2018-09-18T22:27:22.731Z,100318.47
2018-09-18T22:29:51.564Z,100319.82
2018-09-18T22:32:20.328Z,100315.27
2018-09-18T22:34:49.204Z,100322.51
2018-09-18T22:37:17.941Z,100305.52
2018-09-18T22:39:46.701Z,100312.58
2018-09-18T22:42:15.475Z,100311.75
2018-09-18T22:44:44.322Z,100309.55
2018-09-18T22:47:13.141Z,100309.89
2018-09-18T22:49:41.893Z,100304.51
2018-09-18T22:52:10.678Z,100306.70
2018-09-18T22:54:39.496Z,100308.05
2018-09-18T22:57:08.533Z,100301.81
2018-09-18T22:59:37.272Z,100299.13
2018-09-18T23:02:06.126Z,100299.13
2018-09-18T23:04:34.917Z,100302.67
2018-09-18T23:07:03.773Z,100300.99
2018-09-18T23:09:32.536Z,100292.41
2018-09-18T23:12:01.314Z,100287.83
2018-09-18T23:14:30.118Z,100289.38
2018-09-18T23:16:58.926Z,100288.04
2018-09-18T23:19:27.944Z,100285.84
2018-09-18T23:21:56.746Z,100282.30
2018-09-18T23:24:25.460Z,100280.46
2018-09-18T23:26:54.238Z,100283.31
2018-09-18T23:29:23.055Z,100286.82
2018-09-18T23:31:51.837Z,100273.04
2018-09-18T23:34:20.566Z,100273.04
2018-09-18T23:36:49.397Z,100270.84
2018-09-18T23:39:18.167Z,100271.33
2018-09-18T23:41:46.951Z,100266.80
2018-09-18T23:44:15.753Z,100269.12
2018-09-18T23:46:44.533Z,100271.00
2018-09-18T23:49:13.255Z,100269.66
2018-09-18T23:51:42.014Z,100267.95
2018-09-18T23:54:10.809Z,100269.28
2018-09-18T23:56:39.614Z,100269.66
2018-09-18T23:59:08.443Z,100265.25
